Time;durP1;ratioP1;P1;durP2;ratioP2;P2;SDS_P1;SDS_P2;PMS_P1;PMS_P2;Temp;Humidity;BMP_temperature;BMP_pressure;BME280_temperature;BME280_humidity;BME280_pressure;Samples;Min_cycle;Max_cycle;Signal;HPM_P1;HPM_P2
2024/01/19 00:03:41;;;;;;;40.92;16.50;;;;;;;-0.54;100.00;99488.03;12198408;19;20006;-83
2024/01/19 00:07:42;;;;;;;44.38;17.45;;;;;;;-0.52;100.00;99485.97;12179478;19;20003;-84
2024/01/19 00:11:44;;;;;;;38.93;16.53;;;;;;;-0.57;100.00;99488.41;12202938;19;20388;-83
2024/01/19 00:15:46;;;;;;;45.13;17.77;;;;;;;-0.68;100.00;99502.41;12199645;19;20015;-84
2024/01/19 00:19:48;;;;;;;41.17;17.53;;;;;;;-0.84;100.00;99511.50;12173290;19;20003;-84
2024/01/19 00:23:50;;;;;;;43.08;17.20;;;;;;;-0.87;100.00;99513.75;12196774;19;20324;-82
2024/01/19 00:27:52;;;;;;;37.33;16.47;;;;;;;-0.93;100.00;99523.44;12197131;19;20011;-84
2024/01/19 00:31:54;;;;;;;44.73;16.37;;;;;;;-0.90;100.00;99535.75;12176461;19;20007;-83
2024/01/19 00:35:56;;;;;;;39.50;16.75;;;;;;;-0.90;100.00;99539.28;12195108;19;20845;-84
2024/01/19 00:39:58;;;;;;;38.53;16.33;;;;;;;-0.87;100.00;99538.94;12197335;19;20015;-83
2024/01/19 00:44:00;;;;;;;36.78;14.55;;;;;;;-0.83;100.00;99542.97;12170963;19;20020;-84
2024/01/19 00:48:03;;;;;;;39.73;15.70;;;;;;;-0.83;100.00;99547.50;12192153;19;20611;-82
2024/01/19 00:52:05;;;;;;;41.03;14.07;;;;;;;-0.86;100.00;99545.16;12173879;19;20029;-82
2024/01/19 00:56:08;;;;;;;41.20;14.60;;;;;;;-0.87;100.00;99551.63;12196232;19;20010;-83
2024/01/19 01:00:11;;;;;;;30.15;12.55;;;;;;;-1.04;100.00;99565.28;12206019;19;20022;-82
2024/01/19 01:04:14;;;;;;;;;;;;;;;-1.21;100.00;99566.44;12183839;19;21642;-82
2024/01/19 01:08:16;;;;;;;28.10;10.95;;;;;;;-1.29;100.00;99570.00;12202811;19;20284;-83
2024/01/19 01:12:18;;;;;;;35.53;13.93;;;;;;;-1.30;100.00;99578.31;12203882;19;20009;-82
2024/01/19 01:16:20;;;;;;;39.90;15.10;;;;;;;-1.25;100.00;99581.31;12176098;19;20461;-80
2024/01/19 01:20:23;;;;;;;34.78;14.32;;;;;;;-1.19;100.00;99596.81;12200568;19;20007;-78
2024/01/19 01:24:25;;;;;;;39.85;14.73;;;;;;;-1.09;100.00;99599.31;12204801;19;20010;-83
2024/01/19 01:28:27;;;;;;;36.45;14.40;;;;;;;-1.00;100.00;99609.03;12186086;19;21011;-82
2024/01/19 01:32:29;;;;;;;37.17;14.53;;;;;;;-0.95;100.00;99621.00;12205498;19;20042;-83
2024/01/19 01:36:31;;;;;;;43.07;17.33;;;;;;;-0.84;100.00;99613.47;12204973;19;20419;-83
2024/01/19 01:40:33;;;;;;;34.00;14.60;;;;;;;-0.78;100.00;99618.16;12183967;19;20010;-82
2024/01/19 01:44:35;;;;;;;48.40;17.75;;;;;;;-0.76;100.00;99630.47;12202098;19;20014;-81
2024/01/19 01:48:37;;;;;;;39.57;16.00;;;;;;;-0.71;100.00;99636.19;12203165;19;19999;-82
2024/01/19 01:52:39;;;;;;;32.45;15.02;;;;;;;-0.72;100.00;99642.63;12178187;19;20768;-83
2024/01/19 01:56:41;;;;;;;38.63;15.60;;;;;;;-0.74;100.00;99644.69;12203213;19;20114;-82
2024/01/19 02:00:45;;;;;;;40.50;16.23;;;;;;;-0.78;100.00;99647.91;12201235;19;20010;-84
2024/01/19 02:04:46;;;;;;;34.08;15.75;;;;;;;-0.84;100.00;99664.88;12182664;19;21003;-82
2024/01/19 02:08:48;;;;;;;41.08;17.50;;;;;;;-0.92;100.00;99665.78;12195497;19;20019;-81
2024/01/19 02:12:50;;;;;;;39.50;15.80;;;;;;;-0.99;100.00;99673.75;12206283;19;20033;-82
2024/01/19 02:16:52;;;;;;;37.42;16.63;;;;;;;-1.05;100.00;99679.03;12178616;19;20009;-85
2024/01/19 02:20:55;;;;;;;39.20;17.65;;;;;;;-1.19;100.00;99670.69;12204878;19;20010;-85
2024/01/19 02:24:57;;;;;;;47.63;17.83;;;;;;;-1.31;100.00;99674.81;12202487;19;20662;-80
2024/01/19 02:28:59;;;;;;;45.17;17.10;;;;;;;-1.42;100.00;99684.13;12188494;19;20062;-80
2024/01/19 02:33:03;;;;;;;38.70;16.92;;;;;;;-1.56;100.00;99684.03;12222710;19;20011;-81
2024/01/19 02:37:05;;;;;;;38.10;16.23;;;;;;;-1.69;100.00;99692.69;12196505;19;20010;-83
2024/01/19 02:41:07;;;;;;;43.05;16.13;;;;;;;-1.83;100.00;99695.06;12212999;19;20043;-82
2024/01/19 02:45:09;;;;;;;47.65;16.60;;;;;;;-1.93;100.00;99702.53;12204693;19;20029;-81
2024/01/19 02:49:11;;;;;;;38.17;15.80;;;;;;;-2.03;100.00;99701.88;12180888;19;20490;-84
2024/01/19 02:53:13;;;;;;;24.37;10.87;;;;;;;-2.12;100.00;99706.44;12202294;19;21522;-84
2024/01/19 02:57:15;;;;;;;39.87;14.50;;;;;;;-2.18;100.00;99714.38;12200285;19;20742;-81
2024/01/19 03:01:18;;;;;;;34.90;14.40;;;;;;;-2.32;100.00;99719.47;12172179;19;20565;-80
2024/01/19 03:05:20;;;;;;;30.33;13.90;;;;;;;-2.43;100.00;99719.78;12204154;19;20489;-81
2024/01/19 03:09:22;;;;;;;34.72;13.68;;;;;;;-2.53;100.00;99716.38;12201670;19;20025;-82
2024/01/19 03:13:24;;;;;;;37.57;13.50;;;;;;;-2.61;100.00;99717.25;12181812;19;20018;-84
2024/01/19 03:17:27;;;;;;;31.70;13.77;;;;;;;-2.65;100.00;99717.72;12201350;19;20350;-80
2024/01/19 03:21:29;;;;;;;33.28;13.55;;;;;;;-2.70;100.00;99717.41;12201109;19;20009;-83
2024/01/19 03:25:30;;;;;;;35.30;13.90;;;;;;;-2.73;100.00;99720.44;12178510;19;20064;-82
2024/01/19 03:29:32;;;;;;;35.10;13.53;;;;;;;-2.79;100.00;99722.78;12200142;19;20019;-82
2024/01/19 03:33:34;;;;;;;42.10;13.53;;;;;;;-2.83;100.00;99720.56;12207288;19;20027;-82
2024/01/19 03:37:36;;;;;;;35.75;13.60;;;;;;;-2.90;100.00;99728.50;12185027;19;20070;-82
2024/01/19 03:41:38;;;;;;;27.63;12.70;;;;;;;-2.93;100.00;99733.38;12203403;19;20010;-84
2024/01/19 03:45:39;;;;;;;34.27;15.93;;;;;;;-2.99;100.00;99729.47;12239448;19;20007;-80
2024/01/19 03:49:42;;;;;;;28.05;12.18;;;;;;;-3.03;100.00;99737.06;12187896;19;20042;-84
2024/01/19 03:53:43;;;;;;;41.57;14.43;;;;;;;-3.09;100.00;99736.88;12201153;19;20002;-81
2024/01/19 03:57:45;;;;;;;30.27;13.00;;;;;;;-3.11;100.00;99725.41;12197929;19;20006;-83
2024/01/19 04:01:47;;;;;;;43.10;15.30;;;;;;;-3.17;100.00;99731.47;12176899;19;20014;-81
2024/01/19 04:05:49;;;;;;;32.30;13.40;;;;;;;-3.22;100.00;99743.53;12195137;19;20799;-80
2024/01/19 04:09:51;;;;;;;29.98;12.60;;;;;;;-3.26;100.00;99747.59;12195323;19;20014;-80
2024/01/19 04:13:53;;;;;;;31.50;13.57;;;;;;;-3.26;100.00;99747.59;12173920;19;20013;-81
2024/01/19 04:17:55;;;;;;;32.20;13.80;;;;;;;-3.28;100.00;99752.28;12193760;19;20062;-81
2024/01/19 04:21:57;;;;;;;26.13;11.80;;;;;;;-3.33;100.00;99768.13;12194734;19;20267;-83
2024/01/19 04:25:58;;;;;;;33.10;12.33;;;;;;;-3.33;100.00;99773.50;12172671;19;21121;-83
2024/01/19 04:30:00;;;;;;;34.55;13.73;;;;;;;-3.36;100.00;99773.81;12195965;19;20014;-85
2024/01/19 04:34:02;;;;;;;28.80;11.73;;;;;;;-3.35;100.00;99783.59;12195204;19;20010;-83
2024/01/19 04:38:04;;;;;;;30.88;12.93;;;;;;;-3.38;100.00;99792.00;12173108;19;20011;-83
2024/01/19 04:42:06;;;;;;;34.80;12.53;;;;;;;-3.38;100.00;99797.38;12196777;19;20002;-85
2024/01/19 04:46:07;;;;;;;33.03;12.70;;;;;;;-3.35;100.00;99793.53;12187063;19;20010;-81
2024/01/19 04:50:09;;;;;;;28.30;11.90;;;;;;;-3.40;100.00;99799.38;12228779;19;20270;-80
2024/01/19 04:54:11;;;;;;;29.55;12.02;;;;;;;-3.45;100.00;99799.00;12227214;19;20007;-80
2024/01/19 04:58:13;;;;;;;28.50;11.98;;;;;;;-3.49;100.00;99800.34;12185234;19;20007;-80
2024/01/19 05:02:16;;;;;;;29.73;12.30;;;;;;;-3.50;100.00;99807.59;12203909;19;20014;-80
2024/01/19 05:06:20;;;;;;;30.45;11.73;;;;;;;-3.51;100.00;99816.69;12194488;19;20006;-83
2024/01/19 05:10:22;;;;;;;25.60;10.70;;;;;;;-3.53;100.00;99821.38;12176359;19;21844;-82
2024/01/19 05:14:24;;;;;;;29.30;12.73;;;;;;;-3.57;100.00;99829.91;12241514;19;19995;-81
2024/01/19 05:18:25;;;;;;;31.70;11.70;;;;;;;-3.61;100.00;99820.47;12210669;19;20011;-83
2024/01/19 05:22:28;;;;;;;29.58;11.45;;;;;;;-3.68;100.00;99833.75;12176518;19;20639;-80
2024/01/19 05:26:30;;;;;;;30.02;10.52;;;;;;;-3.74;100.00;99834.38;12199635;19;20006;-85
2024/01/19 05:30:32;;;;;;;32.53;12.05;;;;;;;-3.77;100.00;99838.22;12195261;19;20014;-79
2024/01/19 05:34:34;;;;;;;25.27;11.37;;;;;;;-3.77;100.00;99846.28;12177313;19;20039;-82
2024/01/19 05:38:36;;;;;;;27.77;11.43;;;;;;;-3.81;100.00;99842.19;12193686;19;20070;-82
2024/01/19 05:42:38;;;;;;;32.20;13.18;;;;;;;-3.79;100.00;99859.06;12199400;19;20029;-83
2024/01/19 05:46:40;;;;;;;29.37;11.93;;;;;;;-3.80;100.00;99868.16;12184053;19;20014;-83
2024/01/19 05:50:42;;;;;;;34.63;14.57;;;;;;;-3.79;100.00;99877.91;12207346;19;20263;-83
2024/01/19 05:54:43;;;;;;;29.92;13.07;;;;;;;-3.80;100.00;99878.91;12209387;19;20046;-83
2024/01/19 05:58:46;;;;;;;40.13;13.73;;;;;;;-3.83;100.00;99883.78;12183063;19;20038;-81
2024/01/19 06:02:48;;;;;;;36.50;15.20;;;;;;;-3.82;100.00;99885.47;12202589;19;20706;-80
2024/01/19 06:06:49;;;;;;;34.60;13.13;;;;;;;-3.87;100.00;99904.75;12202865;19;20019;-83
2024/01/19 06:10:51;;;;;;;30.95;12.20;;;;;;;-3.89;100.00;99912.16;12183638;19;20844;-84
2024/01/19 06:14:53;;;;;;;32.73;14.13;;;;;;;-3.91;100.00;99919.53;12202194;19;20785;-83
2024/01/19 06:18:55;;;;;;;32.38;12.25;;;;;;;-3.94;100.00;99920.69;12202885;19;20010;-81
2024/01/19 06:22:58;;;;;;;35.83;12.70;;;;;;;-3.95;100.00;99939.69;12181365;19;20025;-80
2024/01/19 06:27:00;;;;;;;25.53;10.40;;;;;;;-3.97;100.00;99934.44;12215707;19;20019;-81
2024/01/19 06:31:04;;;;;;;34.13;12.43;;;;;;;-3.99;100.00;99947.22;12208057;19;20260;-82
2024/01/19 06:35:06;;;;;;;32.25;12.15;;;;;;;-3.98;100.00;99956.16;12207834;19;20018;-80
2024/01/19 06:39:08;;;;;;;;;;;;;;;-3.97;100.00;99953.28;12208727;19;19998;-83
2024/01/19 06:43:10;;;;;;;23.65;10.88;;;;;;;-3.95;100.00;99967.47;12186097;19;19911;-83
2024/01/19 06:47:12;;;;;;;;;;;;;;;-3.94;100.00;99962.91;12203598;19;20010;-82
2024/01/19 06:51:18;;;;;;;29.27;10.77;;;;;;;-3.96;100.00;99975.66;12206612;19;19914;-81
2024/01/19 06:55:19;;;;;;;29.52;10.70;;;;;;;-3.98;100.00;99981.22;12232904;19;20010;-79
2024/01/19 06:59:21;;;;;;;39.42;12.63;;;;;;;-3.98;100.00;99999.22;12234858;19;20032;-83
2024/01/19 07:03:23;;;;;;;25.58;10.60;;;;;;;-3.97;100.00;100022.44;12207728;19;20071;-83
2024/01/19 07:07:25;;;;;;;34.50;13.13;;;;;;;-4.00;100.00;100018.22;12209929;19;20014;-82
2024/01/19 07:11:28;;;;;;;19.03;7.73;;;;;;;-4.00;100.00;100028.97;12215424;19;20009;-83
2024/01/19 07:15:30;;;;;;;30.15;11.00;;;;;;;-3.98;100.00;100020.75;12206234;19;20505;-81
2024/01/19 07:19:32;;;;;;;27.67;10.70;;;;;;;-3.98;100.00;100037.75;12184276;19;20018;-84
2024/01/19 07:23:34;;;;;;;35.08;12.65;;;;;;;-3.97;100.00;100027.81;12207569;19;20010;-84
2024/01/19 07:27:36;;;;;;;25.67;11.63;;;;;;;-3.94;100.00;100033.75;12206378;19;20014;-84
2024/01/19 07:31:38;;;;;;;26.35;9.80;;;;;;;-3.90;100.00;100027.09;12190948;19;20498;-85
2024/01/19 07:35:40;;;;;;;31.33;11.00;;;;;;;-3.87;100.00;100033.16;12200880;19;20014;-84
2024/01/19 07:39:42;;;;;;;25.92;11.57;;;;;;;-3.81;100.00;100038.75;12164054;19;20477;-81
2024/01/19 07:43:44;;;;;;;30.70;10.90;;;;;;;-3.74;100.00;100039.88;12181177;19;20029;-85
2024/01/19 07:47:46;;;;;;;25.90;10.68;;;;;;;-3.70;100.00;100033.16;12199456;19;20005;-85
2024/01/19 07:51:49;;;;;;;30.45;11.60;;;;;;;-3.64;100.00;100039.78;12203367;19;20030;-84
2024/01/19 07:55:51;;;;;;;25.35;10.20;;;;;;;-3.59;100.00;100059.03;12189210;19;20010;-84
2024/01/19 07:59:53;;;;;;;25.30;10.40;;;;;;;-3.53;100.00;100060.28;12218554;19;20006;-85
2024/01/19 08:03:55;;;;;;;20.05;7.82;;;;;;;-3.48;100.00;100072.28;12201698;19;20686;-82
2024/01/19 08:07:56;;;;;;;29.02;10.77;;;;;;;-3.43;100.00;100077.22;12172711;19;20119;-83
2024/01/19 08:11:58;;;;;;;27.58;10.40;;;;;;;-3.35;100.00;100077.28;12202105;19;20014;-83
2024/01/19 08:16:01;;;;;;;25.35;11.35;;;;;;;-3.26;100.00;100092.53;12203562;19;21428;-83
2024/01/19 08:20:04;;;;;;;23.25;9.77;;;;;;;-3.16;100.00;100095.16;12180683;19;20007;-83
2024/01/19 08:24:05;;;;;;;27.88;10.70;;;;;;;-3.08;100.00;100102.47;12207284;19;20346;-85
2024/01/19 08:28:07;;;;;;;28.00;11.70;;;;;;;-3.00;100.00;100107.94;12200180;19;20007;-83
2024/01/19 08:32:09;;;;;;;28.10;10.80;;;;;;;-2.93;100.00;100109.00;12178484;19;20014;-81
2024/01/19 08:36:11;;;;;;;27.43;12.53;;;;;;;-2.84;100.00;100112.63;12200044;19;20012;-82
2024/01/19 08:40:13;;;;;;;25.67;11.45;;;;;;;-2.76;100.00;100120.78;12200939;19;20023;-84
2024/01/19 08:44:15;;;;;;;32.88;13.07;;;;;;;-2.66;100.00;100134.16;12181216;19;20034;-80
2024/01/19 08:48:17;;;;;;;33.85;12.35;;;;;;;-2.57;100.00;100144.03;12204905;19;20026;-83
2024/01/19 08:52:18;;;;;;;25.30;11.68;;;;;;;-2.45;100.00;100150.84;12203861;19;20025;-81
2024/01/19 08:56:23;;;;;;;29.63;12.80;;;;;;;-2.34;100.00;100153.31;12183849;19;20067;-83
2024/01/19 09:00:25;;;;;;;33.50;14.48;;;;;;;-2.22;100.00;100167.38;12200911;19;20023;-83
2024/01/19 09:04:27;;;;;;;30.17;13.17;;;;;;;-2.04;100.00;100177.28;12187456;19;20011;-83
2024/01/19 09:08:29;;;;;;;30.25;13.48;;;;;;;-1.72;100.00;100182.88;12203897;19;20255;-83
2024/01/19 09:12:30;;;;;;;26.80;12.93;;;;;;;-1.39;100.00;100177.59;12207420;19;20478;-82
2024/01/19 09:16:32;;;;;;;30.47;14.33;;;;;;;-1.31;100.00;100198.41;12187624;19;20006;-81
2024/01/19 09:20:34;;;;;;;39.40;13.97;;;;;;;-1.22;100.00;100208.22;12225621;19;20006;-82
2024/01/19 09:24:36;;;;;;;32.05;14.80;;;;;;;-1.10;100.00;100204.22;12206852;19;20019;-82
2024/01/19 09:28:37;;;;;;;34.53;14.23;;;;;;;-0.84;100.00;100216.78;12187501;19;20022;-81
2024/01/19 09:32:40;;;;;;;32.83;15.00;;;;;;;-0.49;100.00;100212.94;12209651;19;20458;-81
2024/01/19 09:36:42;;;;;;;;;;;;;;;-0.24;100.00;100225.47;12211886;19;20034;-82
2024/01/19 09:40:45;;;;;;;31.48;14.23;;;;;;;-0.18;100.00;100237.47;12189992;19;19911;-82
2024/01/19 09:45:03;;;;;;;24.88;10.75;;;;;;;-0.24;100.00;100251.69;12214534;19;20020;-85
2024/01/19 09:49:43;;;;;;;30.90;12.55;;;;;;;-0.12;100.00;100266.63;12217821;19;20056;-83
2024/01/19 09:53:53;;;;;;;23.88;11.30;;;;;;;-0.22;100.00;100265.94;12184671;19;20014;-85
2024/01/19 09:57:56;;;;;;;25.98;12.15;;;;;;;-0.18;100.00;100285.38;12208929;19;20007;-84
2024/01/19 10:01:59;;;;;;;;;;;;;;;-0.09;100.00;100287.94;12187420;19;20015;-80
2024/01/19 10:06:00;;;;;;;28.15;10.82;;;;;;;-0.05;100.00;100300.13;12211043;19;20327;-82
2024/01/19 10:10:02;;;;;;;37.85;13.18;;;;;;;0.10;100.00;100297.59;12206133;19;20011;-83
2024/01/19 10:14:04;;;;;;;21.80;11.27;;;;;;;0.20;100.00;100305.53;12187758;19;20481;-82
2024/01/19 10:18:08;;;;;;;23.37;11.20;;;;;;;0.09;100.00;100306.75;12203411;19;20015;-85
2024/01/19 10:22:25;;;;;;;26.42;10.93;;;;;;;0.12;100.00;100305.53;12206681;19;20011;-82
2024/01/19 10:26:27;;;;;;;28.40;11.13;;;;;;;0.43;100.00;100302.97;12182701;19;20017;-82
2024/01/19 10:30:29;;;;;;;30.23;12.13;;;;;;;0.50;100.00;100322.09;12202391;19;20824;-80
2024/01/19 10:34:31;;;;;;;25.83;11.25;;;;;;;0.36;100.00;100316.38;12185755;19;20011;-81
2024/01/19 10:38:33;;;;;;;27.10;11.43;;;;;;;0.27;100.00;100336.38;12204472;19;20112;-81
2024/01/19 10:42:40;;;;;;;22.05;11.00;;;;;;;0.11;100.00;100339.09;12210690;19;20010;-82
2024/01/19 10:46:43;;;;;;;25.55;12.13;;;;;;;0.31;100.00;100336.88;12186989;19;20019;-80
2024/01/19 10:50:45;;;;;;;23.58;12.18;;;;;;;0.63;100.00;100331.41;12207181;19;20010;-80
2024/01/19 10:54:48;;;;;;;28.60;12.43;;;;;;;0.61;100.00;100330.72;12207112;19;20035;-80
2024/01/19 10:58:50;;;;;;;31.75;11.63;;;;;;;0.43;100.00;100330.09;12202031;19;20292;-83
2024/01/19 11:03:00;;;;;;;28.70;12.88;;;;;;;0.57;100.00;100334.81;12208573;19;20014;-84
2024/01/19 11:07:03;;;;;;;21.77;10.57;;;;;;;0.88;100.00;100337.63;12207085;19;20006;-84
2024/01/19 11:11:06;;;;;;;28.40;10.60;;;;;;;0.87;100.00;100338.66;12187148;19;20066;-83
2024/01/19 11:15:13;;;;;;;24.70;10.07;;;;;;;1.03;100.00;100342.31;12208690;19;20006;-80
2024/01/19 11:19:17;;;;;;;27.33;12.25;;;;;;;1.31;100.00;100346.28;12205118;19;20017;-80
2024/01/19 11:23:19;;;;;;;23.25;10.20;;;;;;;1.38;100.00;100343.72;12184046;19;20098;-82
2024/01/19 11:27:27;;;;;;;24.17;11.57;;;;;;;1.27;100.00;100344.94;12204928;19;20023;-83
2024/01/19 11:31:32;;;;;;;25.13;11.05;;;;;;;1.54;100.00;100348.19;12183735;19;20359;-84
2024/01/19 11:35:41;;;;;;;20.92;11.70;;;;;;;1.79;100.00;100359.78;12205454;19;20015;-83
2024/01/19 11:39:43;;;;;;;17.80;8.88;;;;;;;1.69;99.48;100357.28;12200581;19;19998;-80
2024/01/19 11:43:45;;;;;;;21.77;9.63;;;;;;;1.73;99.23;100357.78;12183429;19;20010;-82
2024/01/19 11:47:47;;;;;;;21.20;9.67;;;;;;;1.52;95.97;100356.53;12202218;19;20624;-81
2024/01/19 11:51:49;;;;;;;20.90;9.40;;;;;;;1.57;98.31;100356.81;12202036;19;20011;-84
2024/01/19 11:55:53;;;;;;;27.23;10.98;;;;;;;1.69;98.72;100354.56;12181669;19;20034;-82
2024/01/19 11:59:55;;;;;;;17.90;10.15;;;;;;;1.73;99.49;100358.63;12202089;19;20038;-80
2024/01/19 12:03:59;;;;;;;25.92;10.65;;;;;;;1.74;98.90;100357.59;12198848;19;20011;-81
2024/01/19 12:08:01;;;;;;;21.50;9.93;;;;;;;1.94;98.73;100352.53;12175385;19;20021;-82
2024/01/19 12:12:03;;;;;;;22.50;10.25;;;;;;;2.01;99.62;100358.09;12199303;19;20046;-82
2024/01/19 12:16:06;;;;;;;24.30;11.18;;;;;;;2.08;98.10;100353.63;12196964;19;20003;-83
2024/01/19 12:20:18;;;;;;;22.92;10.73;;;;;;;1.92;96.23;100368.19;12176538;19;20030;-82
2024/01/19 12:24:21;;;;;;;23.40;9.88;;;;;;;1.77;96.32;100372.69;12198530;19;20077;-82
2024/01/19 12:28:23;;;;;;;23.70;9.60;;;;;;;1.61;96.48;100370.94;12199915;19;20018;-81
2024/01/19 12:32:26;;;;;;;20.97;10.40;;;;;;;1.34;97.06;100377.69;12179082;19;20109;-81
2024/01/19 12:36:28;;;;;;;23.20;10.50;;;;;;;1.17;99.32;100371.44;12195095;19;20011;-80
2024/01/19 12:40:34;;;;;;;16.83;8.13;;;;;;;1.53;100.00;100369.09;12180604;19;20006;-81
2024/01/19 12:44:36;;;;;;;21.33;9.98;;;;;;;2.15;98.62;100376.34;12197774;19;20003;-82
2024/01/19 12:48:38;;;;;;;21.05;9.48;;;;;;;2.31;98.58;100377.25;12198590;19;20497;-81
2024/01/19 12:52:40;;;;;;;23.50;10.95;;;;;;;2.17;98.08;100377.03;12173433;19;20007;-81
2024/01/19 12:56:42;;;;;;;24.52;9.95;;;;;;;1.97;96.46;100375.81;12209741;19;20473;-80
2024/01/19 13:00:44;;;;;;;20.55;9.63;;;;;;;1.91;97.75;100373.81;12212300;19;20003;-79
2024/01/19 13:04:46;;;;;;;22.10;11.43;;;;;;;1.91;98.90;100371.94;12188969;19;20047;-82
2024/01/19 13:08:51;;;;;;;23.38;10.18;;;;;;;1.93;99.04;100367.13;12217228;19;20010;-79
2024/01/19 13:13:21;;;;;;;21.30;10.57;;;;;;;1.97;98.99;100363.06;12231496;19;20343;-81
2024/01/19 13:17:24;;;;;;;23.50;10.65;;;;;;;1.93;98.12;100366.31;12187474;19;20010;-82
2024/01/19 13:21:26;;;;;;;24.00;9.95;;;;;;;1.73;98.62;100365.94;12222994;19;20013;-83
2024/01/19 13:25:28;;;;;;;22.55;10.25;;;;;;;1.51;100.00;100359.41;12202550;19;20027;-82
2024/01/19 13:29:30;;;;;;;32.77;13.60;;;;;;;1.30;100.00;100360.88;12231695;19;20015;-82
2024/01/19 13:33:32;;;;;;;29.45;13.35;;;;;;;1.14;100.00;100355.53;12224059;19;20014;-81
2024/01/19 13:37:34;;;;;;;29.73;13.33;;;;;;;1.02;100.00;100365.91;12190367;19;20100;-83
2024/01/19 13:41:37;;;;;;;27.05;12.68;;;;;;;1.02;100.00;100365.06;12213334;19;20014;-83
2024/01/19 13:45:40;;;;;;;;;;;;;;;0.98;100.00;100367.28;12211228;19;20037;-83
2024/01/19 13:49:42;;;;;;;29.00;12.77;;;;;;;0.94;100.00;100370.50;12199210;19;19910;-81
2024/01/19 13:53:45;;;;;;;25.52;11.15;;;;;;;0.85;100.00;100378.66;12217177;19;20945;-82
2024/01/19 13:57:46;;;;;;;27.10;12.15;;;;;;;0.91;100.00;100393.41;12220371;19;20014;-82
2024/01/19 14:01:48;;;;;;;24.70;11.30;;;;;;;0.87;100.00;100395.63;12208159;19;20022;-81
2024/01/19 14:05:50;;;;;;;25.50;11.93;;;;;;;0.80;100.00;100401.91;12239246;19;20003;-81
2024/01/19 14:09:52;;;;;;;30.57;11.13;;;;;;;0.78;100.00;100398.53;12233253;19;20013;-83
2024/01/19 14:13:57;;;;;;;24.00;10.93;;;;;;;0.69;100.00;100403.13;12187922;19;20460;-83
2024/01/19 14:17:59;;;;;;;27.13;10.80;;;;;;;0.64;100.00;100405.47;12208580;19;20010;-81
2024/01/19 14:22:01;;;;;;;25.65;11.80;;;;;;;0.68;100.00;100412.25;12208922;19;22834;-83
2024/01/19 14:26:04;;;;;;;;;;;;;;;0.75;100.00;100423.28;12183597;19;20368;-83
2024/01/19 14:30:06;;;;;;;27.42;12.85;;;;;;;0.99;100.00;100427.84;12209584;19;19917;-83
2024/01/19 14:34:09;;;;;;;29.40;14.02;;;;;;;1.11;100.00;100431.88;12209828;19;21278;-83
2024/01/19 14:38:11;;;;;;;29.20;13.60;;;;;;;1.22;100.00;100446.94;12178053;19;21179;-83
2024/01/19 14:42:14;;;;;;;25.87;13.60;;;;;;;1.29;100.00;100451.50;12226634;19;21353;-84
2024/01/19 14:46:16;;;;;;;24.25;13.35;;;;;;;1.26;100.00;100445.56;12200900;19;20039;-84
2024/01/19 14:50:18;;;;;;;29.75;14.23;;;;;;;1.23;100.00;100449.47;12184704;19;20006;-82
2024/01/19 14:54:20;;;;;;;37.97;15.98;;;;;;;1.19;100.00;100453.56;12206185;19;20554;-83
2024/01/19 14:58:23;;;;;;;26.92;14.55;;;;;;;1.10;100.00;100469.03;12206298;19;20339;-83
2024/01/19 15:02:25;;;;;;;31.57;13.47;;;;;;;0.87;100.00;100474.31;12209373;19;20007;-82
2024/01/19 15:06:26;;;;;;;32.45;14.35;;;;;;;0.55;100.00;100477.88;12216888;19;20033;-84
2024/01/19 15:10:28;;;;;;;32.23;14.10;;;;;;;0.28;100.00;100479.03;12210744;19;20510;-85
2024/01/19 15:14:30;;;;;;;30.27;14.13;;;;;;;0.13;100.00;100477.97;12189862;19;20521;-84
2024/01/19 15:18:32;;;;;;;25.50;12.33;;;;;;;0.10;100.00;100483.72;12209270;19;20011;-85
2024/01/19 15:22:34;;;;;;;34.53;12.73;;;;;;;0.05;100.00;100489.63;12210951;19;20543;-85
2024/01/19 15:26:36;;;;;;;33.70;12.05;;;;;;;0.01;100.00;100499.13;12183980;19;20030;-84
2024/01/19 15:30:39;;;;;;;29.17;11.70;;;;;;;-0.04;100.00;100502.31;12208845;19;20661;-82
2024/01/19 15:34:45;;;;;;;30.38;12.90;;;;;;;-0.07;100.00;100501.78;12186650;19;20027;-84
2024/01/19 15:38:47;;;;;;;26.40;9.88;;;;;;;-0.12;100.00;100509.56;12209096;19;20015;-85
2024/01/19 15:42:48;;;;;;;23.13;10.70;;;;;;;-0.18;100.00;100508.34;12207770;19;20055;-83
2024/01/19 15:46:50;;;;;;;25.17;10.80;;;;;;;-0.29;100.00;100519.50;12184634;19;20010;-83
2024/01/19 15:50:52;;;;;;;26.53;11.83;;;;;;;-0.41;100.00;100531.63;12213867;19;20059;-84
2024/01/19 15:54:56;;;;;;;37.10;13.10;;;;;;;-0.51;100.00;100537.13;12209531;19;20086;-84
2024/01/19 15:58:58;;;;;;;28.85;12.35;;;;;;;-0.58;100.00;100536.91;12202568;19;20038;-86
2024/01/19 16:03:00;;;;;;;26.77;12.70;;;;;;;-0.64;100.00;100545.69;12224336;19;20014;-85
2024/01/19 16:07:02;;;;;;;29.85;14.13;;;;;;;-0.67;100.00;100558.69;12220837;19;20010;-84
2024/01/19 16:11:09;;;;;;;39.78;15.00;;;;;;;-0.68;100.00;100563.25;12197944;19;19999;-85
2024/01/19 16:15:11;;;;;;;36.70;14.13;;;;;;;-0.60;100.00;100570.56;12219831;19;20010;-86
2024/01/19 16:19:14;;;;;;;29.70;13.43;;;;;;;-0.59;100.00;100567.72;12196362;19;20015;-85
2024/01/19 16:23:16;;;;;;;31.95;13.98;;;;;;;-0.56;100.00;100570.09;12175006;19;20010;-82
2024/01/19 16:27:18;;;;;;;23.85;10.32;;;;;;;-0.52;100.00;100584.16;12198707;19;20007;-80
2024/01/19 16:31:21;;;;;;;;;;;;;;;-0.42;100.00;100598.44;12203867;19;20011;-82
2024/01/19 16:35:24;;;;;;;32.38;12.60;;;;;;;-0.28;100.00;100599.72;12183752;19;19918;-81
2024/01/19 16:39:35;;;;;;;40.10;16.00;;;;;;;-0.17;100.00;100594.03;12218874;19;20021;-82
2024/01/19 16:43:38;;;;;;;43.80;15.45;;;;;;;-0.19;100.00;100598.75;12247602;19;20007;-86
2024/01/19 16:47:39;;;;;;;31.25;14.02;;;;;;;-0.16;100.00;100606.56;12186719;19;20011;-83
2024/01/19 16:51:44;;;;;;;35.87;13.10;;;;;;;-0.14;100.00;100607.25;12211449;19;20098;-82
2024/01/19 16:55:46;;;;;;;32.85;15.00;;;;;;;-0.09;100.00;100620.28;12187895;19;20028;-83
2024/01/19 16:59:48;;;;;;;23.73;12.67;;;;;;;-0.02;100.00;100622.22;12207979;19;20006;-84
2024/01/19 17:03:50;;;;;;;29.63;12.90;;;;;;;-0.02;100.00;100629.50;12208763;19;20011;-84
2024/01/19 17:07:52;;;;;;;35.25;14.20;;;;;;;0.01;100.00;100637.31;12182468;19;20028;-83
2024/01/19 17:11:54;;;;;;;36.38;15.20;;;;;;;0.04;100.00;100638.84;12204820;19;20473;-83
2024/01/19 17:15:56;;;;;;;34.77;14.20;;;;;;;0.04;100.00;100649.69;12208284;19;20007;-81
2024/01/19 17:19:58;;;;;;;31.27;14.17;;;;;;;0.02;100.00;100657.97;12188394;19;20002;-83
2024/01/19 17:24:01;;;;;;;34.53;14.68;;;;;;;0.04;100.00;100658.66;12211231;19;20011;-84
2024/01/19 17:28:07;;;;;;;27.45;12.25;;;;;;;-0.01;100.00;100652.88;12207795;19;20006;-86
2024/01/19 17:32:09;;;;;;;29.73;12.32;;;;;;;-0.05;100.00;100655.06;12187069;19;20010;-83
2024/01/19 17:36:12;;;;;;;31.25;13.90;;;;;;;-0.02;100.00;100641.19;12207867;19;20070;-83
2024/01/19 17:40:15;;;;;;;32.42;13.43;;;;;;;0.02;100.00;100652.53;12218099;19;20028;-83
2024/01/19 17:44:17;;;;;;;27.77;12.80;;;;;;;-0.01;100.00;100658.28;12193319;19;20014;-82
2024/01/19 17:48:21;;;;;;;32.53;13.43;;;;;;;-0.03;100.00;100669.31;12214320;19;20007;-82
2024/01/19 17:52:23;;;;;;;34.50;13.32;;;;;;;0.01;100.00;100671.69;12216166;19;20006;-81
2024/01/19 17:56:26;;;;;;;29.88;13.27;;;;;;;0.03;100.00;100669.66;12194554;19;20018;-84
2024/01/19 18:00:28;;;;;;;26.13;11.57;;;;;;;0.02;100.00;100685.06;12213461;19;20014;-81
2024/01/19 18:04:30;;;;;;;32.47;13.35;;;;;;;-0.01;100.00;100696.22;12220767;19;20010;-83
2024/01/19 18:08:32;;;;;;;35.08;14.32;;;;;;;-0.04;100.00;100693.81;12191224;19;20471;-83
2024/01/19 18:12:35;;;;;;;34.40;13.30;;;;;;;-0.03;100.00;100698.22;12223366;19;20006;-83